createdAt,value
2023-03-22T00:00:56.387Z,25.62
2023-03-22T00:03:27.704Z,28.02
2023-03-22T00:05:58.976Z,26.93
2023-03-22T00:08:29.686Z,27.55
2023-03-22T00:11:00.248Z,25.10
2023-03-22T00:13:35.626Z,26.10
2023-03-22T00:16:07.334Z,28.47
2023-03-22T00:18:39.864Z,24.50
2023-03-22T00:21:13.475Z,22.98
2023-03-22T00:23:45.951Z,24.10
2023-03-22T00:26:16.571Z,23.30
2023-03-22T00:28:47.065Z,24.82
2023-03-22T00:31:17.719Z,26.12
2023-03-22T00:33:48.761Z,23.67
2023-03-22T00:36:20.963Z,27.40
2023-03-22T00:38:52.585Z,26.57
2023-03-22T00:41:25.525Z,25.48
2023-03-22T00:43:56.103Z,25.70
2023-03-22T00:46:27.963Z,27.85
2023-03-22T00:48:58.803Z,27.70
2023-03-22T00:51:31.012Z,30.10
2023-03-22T00:54:01.668Z,32.25
2023-03-22T00:56:37.938Z,27.98
2023-03-22T00:59:06.719Z,26.60
2023-03-22T01:01:37.430Z,25.32
2023-03-22T01:04:08.284Z,25.43
2023-03-22T01:06:38.996Z,30.40
2023-03-22T01:09:12.710Z,26.02
2023-03-22T01:11:44.316Z,28.62
2023-03-22T01:14:19.357Z,29.10
2023-03-22T01:16:50.136Z,24.27
2023-03-22T01:19:20.872Z,30.57
2023-03-22T01:21:52.551Z,27.37
2023-03-22T01:24:23.265Z,25.85
2023-03-22T01:26:53.835Z,29.10
2023-03-22T01:29:26.105Z,26.33
2023-03-22T01:31:56.620Z,27.50
2023-03-22T01:34:27.166Z,27.32
2023-03-22T01:36:59.270Z,25.37
2023-03-22T01:39:32.036Z,27.07
2023-03-22T01:42:05.573Z,28.62
2023-03-22T01:44:37.541Z,24.85
2023-03-22T01:47:11.478Z,24.82
2023-03-22T01:49:43.457Z,27.00
2023-03-22T01:52:15.781Z,28.30
2023-03-22T01:54:49.486Z,24.77
2023-03-22T01:57:20.136Z,27.20
2023-03-22T01:59:51.313Z,27.82
2023-03-22T02:02:22.201Z,30.10
2023-03-22T02:04:54.550Z,24.25
2023-03-22T02:07:28.308Z,26.93
2023-03-22T02:09:59.877Z,24.92
2023-03-22T02:12:53.162Z,26.90
2023-03-22T02:15:32.329Z,26.68
2023-03-22T02:18:10.629Z,23.67
2023-03-22T02:21:00.182Z,24.55
2023-03-22T02:23:43.224Z,24.05
2023-03-22T02:26:28.777Z,25.27
2023-03-22T02:29:22.587Z,26.55
2023-03-22T02:32:25.179Z,26.82
2023-03-22T02:35:16.704Z,25.05
2023-03-22T02:38:13.318Z,27.55
2023-03-22T02:41:06.366Z,24.90
2023-03-22T02:43:48.413Z,27.22
2023-03-22T02:46:25.163Z,25.75
2023-03-22T02:48:58.829Z,25.80
2023-03-22T02:51:55.283Z,25.63
2023-03-22T02:54:28.864Z,23.30
2023-03-22T02:57:02.472Z,26.65
2023-03-22T02:59:36.867Z,24.02
2023-03-22T03:02:10.726Z,22.00
2023-03-22T03:04:45.502Z,24.43
2023-03-22T03:07:20.290Z,24.00
2023-03-22T03:09:53.237Z,22.85
2023-03-22T03:12:26.641Z,23.35
2023-03-22T03:14:57.829Z,25.30
2023-03-22T03:17:37.361Z,22.45
2023-03-22T03:20:12.234Z,22.93
2023-03-22T03:22:57.920Z,25.82
2023-03-22T03:25:48.334Z,22.32
2023-03-22T03:28:32.481Z,23.57
2023-03-22T03:31:31.902Z,22.98
2023-03-22T03:34:05.562Z,23.92
2023-03-22T03:36:38.386Z,24.43
2023-03-22T03:39:12.405Z,24.40
2023-03-22T03:41:47.322Z,22.07
2023-03-22T03:44:19.312Z,23.98
2023-03-22T03:46:51.724Z,21.40
2023-03-22T03:49:24.104Z,22.13
2023-03-22T03:51:56.300Z,23.30
2023-03-22T03:54:26.945Z,22.50
2023-03-22T03:56:57.834Z,21.70
2023-03-22T03:59:29.858Z,23.60
2023-03-22T04:02:00.483Z,23.33
2023-03-22T04:04:31.247Z,21.37
2023-03-22T04:07:04.652Z,21.42
2023-03-22T04:09:38.004Z,22.93
2023-03-22T04:12:09.755Z,20.60
2023-03-22T04:14:44.275Z,19.05
2023-03-22T04:17:18.296Z,20.45
2023-03-22T04:19:49.594Z,19.27
2023-03-22T04:22:20.072Z,22.73
2023-03-22T04:24:51.128Z,20.05
2023-03-22T04:27:22.799Z,20.30
2023-03-22T04:29:54.596Z,21.20
2023-03-22T04:32:25.310Z,18.40
2023-03-22T04:34:56.222Z,22.10
2023-03-22T04:37:27.170Z,23.02
2023-03-22T04:39:58.948Z,18.75
2023-03-22T04:42:30.557Z,19.42
2023-03-22T04:45:03.581Z,19.20
2023-03-22T04:47:34.212Z,19.20
2023-03-22T04:50:07.490Z,18.95
2023-03-22T04:52:38.198Z,18.57
2023-03-22T04:55:09.764Z,19.42
2023-03-22T04:57:40.465Z,18.90
2023-03-22T05:00:11.986Z,19.75
2023-03-22T05:02:42.638Z,21.02
2023-03-22T05:05:13.355Z,21.50
2023-03-22T05:07:47.061Z,19.40
2023-03-22T05:10:17.657Z,19.77
2023-03-22T05:12:49.907Z,20.57
2023-03-22T05:15:20.365Z,18.98
2023-03-22T05:17:51.002Z,19.42
2023-03-22T05:20:22.908Z,18.25
2023-03-22T05:22:56.166Z,21.10
2023-03-22T05:25:26.783Z,20.08
2023-03-22T05:27:58.984Z,20.75
2023-03-22T05:30:30.753Z,20.48
2023-03-22T05:33:03.121Z,21.37
2023-03-22T05:35:35.575Z,20.97
2023-03-22T05:38:06.788Z,19.65
2023-03-22T05:40:39.468Z,20.82
2023-03-22T05:43:10.596Z,19.10
2023-03-22T05:45:42.456Z,21.37
2023-03-22T05:48:13.403Z,19.37
2023-03-22T05:50:44.261Z,18.50
2023-03-22T05:53:14.852Z,17.07
2023-03-22T05:55:46.202Z,17.65
2023-03-22T05:58:18.445Z,19.77
2023-03-22T06:00:52.179Z,18.00
2023-03-22T06:03:24.568Z,19.15
2023-03-22T06:05:55.703Z,21.15
2023-03-22T06:08:26.876Z,16.82
2023-03-22T06:10:58.168Z,17.27
2023-03-22T06:13:30.713Z,19.92
2023-03-22T06:16:03.025Z,17.40
2023-03-22T06:18:34.227Z,18.80
2023-03-22T06:21:08.354Z,16.32
2023-03-22T06:23:44.386Z,16.90
2023-03-22T06:26:14.871Z,18.05
2023-03-22T06:28:47.664Z,18.15
2023-03-22T06:31:18.155Z,18.67
2023-03-22T06:33:48.770Z,17.85
2023-03-22T06:36:19.455Z,20.72
2023-03-22T06:38:50.601Z,19.50
2023-03-22T06:41:22.018Z,17.70
2023-03-22T06:43:53.069Z,18.82
2023-03-22T06:46:23.767Z,16.62
2023-03-22T06:48:54.326Z,18.98
2023-03-22T06:51:26.196Z,16.87
2023-03-22T06:53:56.602Z,18.23
2023-03-22T06:56:29.266Z,16.97
2023-03-22T06:59:00.259Z,18.75
2023-03-22T07:01:31.025Z,20.70
2023-03-22T07:04:01.689Z,18.32
2023-03-22T07:06:32.756Z,19.07
2023-03-22T07:09:03.482Z,20.80
2023-03-22T07:11:35.630Z,16.07
2023-03-22T07:14:07.718Z,18.87
2023-03-22T07:16:40.122Z,15.70
2023-03-22T07:19:12.026Z,16.10
2023-03-22T07:21:44.810Z,15.30
2023-03-22T07:24:15.824Z,18.32
2023-03-22T07:26:46.565Z,16.07
2023-03-22T07:29:17.187Z,18.75
2023-03-22T07:31:47.768Z,18.65
2023-03-22T07:34:18.144Z,17.75
2023-03-22T07:36:52.162Z,17.87
2023-03-22T07:39:24.218Z,16.07
2023-03-22T07:41:54.715Z,14.20
2023-03-22T07:44:25.941Z,16.70
2023-03-22T07:46:59.163Z,16.37
2023-03-22T07:49:30.275Z,18.10
2023-03-22T07:52:01.126Z,15.63
2023-03-22T07:54:34.242Z,17.70
2023-03-22T07:57:03.886Z,15.80
2023-03-22T07:59:34.413Z,16.50
2023-03-22T08:02:05.074Z,15.23
2023-03-22T08:04:35.619Z,16.05
2023-03-22T08:07:07.823Z,14.10
2023-03-22T08:09:39.442Z,14.30
2023-03-22T08:12:09.916Z,14.85
2023-03-22T08:14:40.379Z,13.28
2023-03-22T08:17:11.309Z,15.85
2023-03-22T08:19:41.818Z,14.20
2023-03-22T08:22:12.325Z,14.73
2023-03-22T08:24:42.796Z,13.58
2023-03-22T08:27:14.202Z,14.03
2023-03-22T08:29:44.621Z,13.05
2023-03-22T08:32:16.326Z,15.83
2023-03-22T08:34:49.340Z,13.60
2023-03-22T08:37:20.409Z,13.80
2023-03-22T08:39:51.996Z,14.98
2023-03-22T08:42:24.093Z,13.20
2023-03-22T08:44:54.653Z,14.80
2023-03-22T08:47:27.546Z,14.47
2023-03-22T08:49:58.146Z,15.38
2023-03-22T08:52:30.194Z,13.10
2023-03-22T08:55:01.137Z,13.22
2023-03-22T08:57:31.882Z,13.70
2023-03-22T09:00:06.491Z,13.15
2023-03-22T09:02:37.368Z,12.68
2023-03-22T09:05:08.091Z,12.75
2023-03-22T09:07:39.199Z,14.03
2023-03-22T09:10:10.686Z,15.23
2023-03-22T09:12:41.162Z,13.83
2023-03-22T09:15:12.170Z,12.63
2023-03-22T09:17:42.621Z,14.28
2023-03-22T09:20:17.959Z,15.32
2023-03-22T09:22:48.736Z,15.38
2023-03-22T09:25:19.537Z,10.93
2023-03-22T09:27:51.527Z,10.68
2023-03-22T09:30:21.968Z,12.65
2023-03-22T09:32:52.502Z,13.22
2023-03-22T09:35:23.548Z,12.70
2023-03-22T09:37:54.676Z,11.38
2023-03-22T09:40:28.694Z,11.78
2023-03-22T09:43:02.086Z,13.43
2023-03-22T09:45:37.003Z,11.73
2023-03-22T09:48:13.739Z,12.65
2023-03-22T09:50:49.816Z,11.48
2023-03-22T09:53:23.706Z,12.95
2023-03-22T09:56:12.378Z,13.13
2023-03-22T09:58:51.484Z,13.03
2023-03-22T10:01:51.811Z,11.20
2023-03-22T10:04:36.794Z,11.85
2023-03-22T10:07:13.771Z,11.15
2023-03-22T10:10:11.287Z,11.10
2023-03-22T10:12:47.576Z,13.30
2023-03-22T10:15:21.058Z,12.10
2023-03-22T10:17:54.413Z,10.85
2023-03-22T10:20:28.494Z,12.33
2023-03-22T10:23:04.347Z,9.65
2023-03-22T10:25:39.014Z,10.93
2023-03-22T10:28:18.840Z,13.80
2023-03-22T10:30:54.759Z,9.70
2023-03-22T10:33:40.435Z,11.03
2023-03-22T10:36:16.589Z,8.33
2023-03-22T10:38:54.268Z,9.35
2023-03-22T10:41:26.525Z,8.73
2023-03-22T10:44:02.980Z,8.88
2023-03-22T10:46:37.579Z,8.58
2023-03-22T10:49:11.004Z,9.15
2023-03-22T10:51:54.696Z,12.10
2023-03-22T10:54:27.127Z,11.45
2023-03-22T10:56:57.625Z,8.85
2023-03-22T10:59:51.962Z,8.80
2023-03-22T11:02:28.104Z,8.10
2023-03-22T11:05:01.341Z,8.38
2023-03-22T11:07:35.164Z,8.93
2023-03-22T11:10:11.813Z,7.35
2023-03-22T11:12:54.250Z,8.63
2023-03-22T11:15:33.888Z,6.97
2023-03-22T11:18:07.440Z,7.50
2023-03-22T11:20:43.773Z,8.13
2023-03-22T11:23:18.015Z,6.62
2023-03-22T11:25:51.539Z,8.40
2023-03-22T11:28:24.654Z,8.00
2023-03-22T11:31:11.467Z,6.58
2023-03-22T11:33:58.832Z,8.00
2023-03-22T11:36:30.268Z,5.50
2023-03-22T11:39:04.100Z,6.50
2023-03-22T11:41:40.815Z,6.53
2023-03-22T11:44:15.428Z,7.10
2023-03-22T11:47:03.342Z,7.08
2023-03-22T11:49:36.858Z,5.75
2023-03-22T11:52:11.820Z,5.65
2023-03-22T11:54:45.832Z,6.22
2023-03-22T11:57:19.508Z,5.33
2023-03-22T11:59:56.753Z,5.42
2023-03-22T12:02:34.216Z,5.55
2023-03-22T12:05:10.664Z,6.47
2023-03-22T12:07:43.766Z,5.25
2023-03-22T12:10:26.997Z,5.08
2023-03-22T12:13:07.896Z,6.95
2023-03-22T12:15:42.160Z,5.97
2023-03-22T12:18:23.197Z,6.20
2023-03-22T12:20:59.128Z,7.30
2023-03-22T12:23:34.581Z,5.30
2023-03-22T12:26:18.327Z,8.13
2023-03-22T12:29:01.825Z,7.30
2023-03-22T12:31:38.530Z,5.65
2023-03-22T12:37:09.212Z,5.62
2023-03-22T12:39:43.780Z,6.55
2023-03-22T12:42:21.983Z,6.65
2023-03-22T12:45:04.617Z,5.55
2023-03-22T12:47:31.172Z,5.75
2023-03-22T12:50:05.555Z,6.08
2023-03-22T12:52:45.606Z,7.03
2023-03-22T12:55:25.374Z,4.75
2023-03-22T12:57:59.899Z,5.45
2023-03-22T13:00:48.592Z,5.08
2023-03-22T13:03:23.654Z,4.90
2023-03-22T13:06:03.499Z,5.47
2023-03-22T13:09:12.000Z,5.33
2023-03-22T13:11:44.644Z,9.48
2023-03-22T13:14:54.134Z,5.78
2023-03-22T13:17:27.835Z,4.08
2023-03-22T13:20:14.782Z,6.78
2023-03-22T13:22:52.556Z,6.37
2023-03-22T13:25:37.893Z,5.30
2023-03-22T13:28:32.077Z,4.62
2023-03-22T13:31:02.590Z,4.20
2023-03-22T13:33:36.420Z,4.97
2023-03-22T13:36:25.953Z,4.90
2023-03-22T13:39:03.162Z,6.20
2023-03-22T13:41:35.560Z,5.20
2023-03-22T13:44:30.053Z,4.40
2023-03-22T13:47:06.037Z,5.00
2023-03-22T13:49:46.283Z,5.97
2023-03-22T13:52:27.641Z,4.05
2023-03-22T13:54:59.571Z,5.65
2023-03-22T13:57:48.832Z,6.05
2023-03-22T14:00:25.052Z,3.77
2023-03-22T14:02:57.062Z,6.10
2023-03-22T14:05:32.316Z,4.62
2023-03-22T14:08:04.484Z,4.05
2023-03-22T14:10:53.791Z,3.70
2023-03-22T14:13:31.184Z,3.37
2023-03-22T14:16:21.977Z,4.05
2023-03-22T14:18:52.773Z,3.80
2023-03-22T14:21:27.549Z,4.15
